createdAt,value
2019-01-19T00:01:21.758Z,10.55
2019-01-19T00:04:14.054Z,9.35
2019-01-19T00:07:09.717Z,12.43
2019-01-19T00:10:15.643Z,14.00
2019-01-19T00:13:09.727Z,10.82
2019-01-19T00:15:52.997Z,13.55
2019-01-19T00:18:36.493Z,13.35
2019-01-19T00:21:19.419Z,13.05
2019-01-19T00:24:02.896Z,9.95
2019-01-19T00:26:49.192Z,10.80
2019-01-19T00:29:35.294Z,13.68
2019-01-19T00:32:12.272Z,11.25
2019-01-19T00:35:04.429Z,12.58
2019-01-19T00:37:41.516Z,15.13
2019-01-19T00:40:46.193Z,11.20
2019-01-19T00:43:16.707Z,13.15
2019-01-19T00:45:59.860Z,15.08
2019-01-19T00:48:37.086Z,11.43
2019-01-19T00:51:19.459Z,18.48
2019-01-19T00:54:22.188Z,9.40
2019-01-19T00:57:08.536Z,12.30
2019-01-19T00:59:38.556Z,15.98
2019-01-19T01:02:32.599Z,21.23
2019-01-19T01:05:12.742Z,8.88
2019-01-19T01:08:02.164Z,9.15
2019-01-19T01:10:39.643Z,11.08
2019-01-19T01:13:32.181Z,11.12
2019-01-19T01:16:34.729Z,12.47
2019-01-19T01:19:15.499Z,8.65
2019-01-19T01:22:05.023Z,12.90
2019-01-19T01:25:20.693Z,12.47
2019-01-19T01:28:19.399Z,14.80
2019-01-19T01:31:01.830Z,8.65
2019-01-19T01:34:18.465Z,7.35
2019-01-19T01:37:10.744Z,13.83
2019-01-19T01:39:45.322Z,12.15
2019-01-19T01:42:46.589Z,10.58
2019-01-19T01:45:49.190Z,9.35
2019-01-19T01:48:32.175Z,7.15
2019-01-19T01:51:12.464Z,13.45
2019-01-19T01:54:20.247Z,12.07
2019-01-19T01:56:50.159Z,10.60
2019-01-19T01:59:33.411Z,10.03
2019-01-19T02:02:10.661Z,9.93
2019-01-19T02:05:05.631Z,10.53
2019-01-19T02:07:57.906Z,16.70
2019-01-19T02:10:47.193Z,9.88
2019-01-19T02:13:42.593Z,7.25
2019-01-19T02:16:36.319Z,13.53
2019-01-19T02:19:34.700Z,13.43
2019-01-19T02:22:12.118Z,12.10
2019-01-19T02:25:03.587Z,11.90
2019-01-19T02:27:37.926Z,10.25
2019-01-19T02:30:48.513Z,10.35
2019-01-19T02:33:42.145Z,8.38
2019-01-19T02:36:16.455Z,9.30
2019-01-19T02:38:50.746Z,10.23
2019-01-19T02:41:25.067Z,13.20
2019-01-19T02:44:02.306Z,13.55
2019-01-19T02:46:57.708Z,11.90
2019-01-19T02:50:05.909Z,7.67
2019-01-19T02:52:40.175Z,10.08
2019-01-19T02:55:43.784Z,7.08
2019-01-19T02:58:38.907Z,9.85
2019-01-19T03:01:25.249Z,7.53
2019-01-19T03:04:28.122Z,9.65
2019-01-19T03:07:31.192Z,10.40
2019-01-19T03:10:30.621Z,13.85
2019-01-19T03:13:38.122Z,11.33
2019-01-19T03:16:45.773Z,9.45
2019-01-19T03:19:47.224Z,9.20
2019-01-19T03:23:03.744Z,9.13
2019-01-19T03:26:01.256Z,6.28
2019-01-19T03:28:59.764Z,6.75
2019-01-19T03:31:55.137Z,8.98
2019-01-19T03:34:46.976Z,11.68
2019-01-19T03:37:33.127Z,10.68
2019-01-19T03:40:40.070Z,7.17
2019-01-19T03:43:32.415Z,6.78
2019-01-19T03:46:27.700Z,6.67
2019-01-19T03:49:27.660Z,10.68
2019-01-19T03:52:26.268Z,6.42
2019-01-19T03:55:24.809Z,7.45
2019-01-19T03:58:21.804Z,7.70
2019-01-19T04:01:11.396Z,10.03
2019-01-19T04:04:26.669Z,6.25
2019-01-19T04:07:29.695Z,8.38
2019-01-19T04:10:10.020Z,5.85
2019-01-19T04:13:01.742Z,8.65
2019-01-19T04:16:05.175Z,8.83
2019-01-19T04:18:45.091Z,8.85
2019-01-19T04:21:43.554Z,9.48
2019-01-19T04:24:20.935Z,13.80
2019-01-19T04:30:38.128Z,8.78
2019-01-19T04:33:07.627Z,14.18
2019-01-19T04:35:37.229Z,6.78
2019-01-19T04:38:06.750Z,6.30
2019-01-19T04:40:36.438Z,6.65
2019-01-19T04:43:06.029Z,6.17
2019-01-19T04:45:35.595Z,7.42
2019-01-19T04:48:05.518Z,22.25
2019-01-19T04:50:35.038Z,9.48
2019-01-19T04:53:04.681Z,8.70
2019-01-19T04:55:34.163Z,6.28
2019-01-19T04:58:03.753Z,6.37
2019-01-19T05:00:33.242Z,8.23
2019-01-19T05:03:04.854Z,7.40
2019-01-19T05:05:34.358Z,8.55
2019-01-19T05:08:04.153Z,3.77
2019-01-19T05:10:33.762Z,6.25
2019-01-19T05:13:03.306Z,5.10
2019-01-19T05:15:32.816Z,9.65
2019-01-19T05:18:02.466Z,3.80
2019-01-19T05:20:32.076Z,4.28
2019-01-19T05:23:01.611Z,4.12
2019-01-19T05:25:31.165Z,4.25
2019-01-19T05:28:00.654Z,5.87
2019-01-19T05:30:30.185Z,3.65
2019-01-19T05:32:59.688Z,6.87
2019-01-19T05:35:29.268Z,8.85
2019-01-19T05:37:58.784Z,3.83
2019-01-19T05:40:28.288Z,7.95
2019-01-19T05:42:57.775Z,6.67
2019-01-19T05:45:27.332Z,6.47
2019-01-19T05:47:56.925Z,5.55
2019-01-19T05:50:26.487Z,3.67
2019-01-19T05:52:55.990Z,5.80
2019-01-19T05:55:25.477Z,4.95
2019-01-19T05:57:55.064Z,2.75
2019-01-19T06:00:27.344Z,4.28
2019-01-19T06:02:56.831Z,4.72
2019-01-19T06:05:26.419Z,4.22
2019-01-19T06:07:56.116Z,4.42
2019-01-19T06:10:25.676Z,4.45
2019-01-19T06:12:55.176Z,3.62
2019-01-19T06:15:24.809Z,7.30
2019-01-19T06:17:54.324Z,4.17
2019-01-19T06:20:24.023Z,5.55
2019-01-19T06:22:53.624Z,3.77
2019-01-19T06:25:23.195Z,5.87
2019-01-19T06:27:52.689Z,11.03
2019-01-19T06:30:23.878Z,7.67
2019-01-19T06:32:53.508Z,8.00
2019-01-19T06:35:23.023Z,4.90
2019-01-19T06:37:52.543Z,4.80
2019-01-19T06:40:22.262Z,9.18
2019-01-19T06:42:51.753Z,6.05
2019-01-19T06:45:24.172Z,4.85
2019-01-19T06:47:53.862Z,5.08
2019-01-19T06:50:24.078Z,5.03
2019-01-19T06:52:53.593Z,5.20
2019-01-19T06:55:27.578Z,7.53
2019-01-19T06:57:57.154Z,5.20
2019-01-19T07:00:26.734Z,4.15
2019-01-19T07:02:56.221Z,6.58
2019-01-19T07:05:25.849Z,5.95
2019-01-19T07:07:56.848Z,3.40
2019-01-19T07:10:27.628Z,5.45
2019-01-19T07:12:57.190Z,5.50
2019-01-19T07:15:26.883Z,4.42
2019-01-19T07:17:56.456Z,5.70
2019-01-19T07:20:31.040Z,5.17
2019-01-19T07:23:00.623Z,4.80
2019-01-19T07:25:30.139Z,5.65
2019-01-19T07:27:59.658Z,9.85
2019-01-19T07:30:30.814Z,5.25
2019-01-19T07:33:00.334Z,6.65
2019-01-19T07:35:29.944Z,4.42
2019-01-19T07:37:59.511Z,7.85
2019-01-19T07:40:29.005Z,5.45
2019-01-19T07:43:00.482Z,6.25
2019-01-19T07:45:30.082Z,6.25
2019-01-19T07:47:59.623Z,7.87
2019-01-19T07:50:29.227Z,5.95
2019-01-19T07:52:58.709Z,5.80
2019-01-19T07:55:28.379Z,9.35
2019-01-19T07:57:57.896Z,5.60
2019-01-19T08:00:33.400Z,4.83
2019-01-19T08:03:03.036Z,4.20
2019-01-19T08:05:32.667Z,4.00
2019-01-19T08:08:02.198Z,6.00
2019-01-19T08:10:31.693Z,8.18
2019-01-19T08:13:01.321Z,4.62
2019-01-19T08:15:31.315Z,3.22
2019-01-19T08:18:00.953Z,4.28
2019-01-19T08:20:30.491Z,5.40
2019-01-19T08:23:00.053Z,4.92
2019-01-19T08:25:29.634Z,5.83
2019-01-19T08:27:59.170Z,3.15
2019-01-19T08:30:30.743Z,4.60
2019-01-19T08:33:00.286Z,6.35
2019-01-19T08:35:30.470Z,6.28
2019-01-19T08:38:00.051Z,6.05
2019-01-19T08:40:35.604Z,3.83
2019-01-19T08:43:06.877Z,4.75
2019-01-19T08:45:36.513Z,5.12
2019-01-19T08:48:06.323Z,3.72
2019-01-19T08:50:35.812Z,4.15
2019-01-19T08:53:05.459Z,7.50
2019-01-19T08:55:34.963Z,3.87
2019-01-19T08:58:04.872Z,11.75
2019-01-19T09:00:34.373Z,2.65
2019-01-19T09:03:03.957Z,4.30
2019-01-19T09:05:33.516Z,3.17
2019-01-19T09:08:03.207Z,6.35
2019-01-19T09:10:32.821Z,3.83
2019-01-19T09:13:02.300Z,5.03
2019-01-19T09:15:31.876Z,7.00
2019-01-19T09:18:01.414Z,3.58
2019-01-19T09:20:30.999Z,5.65
2019-01-19T09:23:07.979Z,2.12
2019-01-19T09:25:37.451Z,8.88
2019-01-19T09:28:07.053Z,3.00
2019-01-19T09:30:36.631Z,3.15
2019-01-19T09:33:06.931Z,4.25
2019-01-19T09:35:36.448Z,2.92
2019-01-19T09:38:06.092Z,4.97
2019-01-19T09:40:35.659Z,4.35
2019-01-19T09:43:05.490Z,5.37
2019-01-19T09:45:34.956Z,4.42
2019-01-19T09:48:04.784Z,3.35
2019-01-19T09:50:34.538Z,3.60
2019-01-19T09:53:04.214Z,3.83
2019-01-19T09:55:33.770Z,3.55
2019-01-19T09:58:03.318Z,3.77
2019-01-19T10:00:37.566Z,4.67
2019-01-19T10:03:04.454Z,4.40
2019-01-19T10:05:35.962Z,2.47
2019-01-19T10:08:05.680Z,2.75
2019-01-19T10:10:35.377Z,5.05
2019-01-19T10:13:05.278Z,3.77
2019-01-19T10:15:34.825Z,4.53
2019-01-19T10:18:04.472Z,3.25
2019-01-19T10:20:34.037Z,6.03
2019-01-19T10:23:03.692Z,4.20
2019-01-19T10:25:33.301Z,2.90
2019-01-19T10:28:02.857Z,2.58
2019-01-19T10:30:32.869Z,3.40
2019-01-19T10:33:02.365Z,5.55
2019-01-19T10:35:31.850Z,2.77
2019-01-19T10:38:01.349Z,4.80
2019-01-19T10:40:31.007Z,6.22
2019-01-19T10:43:00.630Z,3.87
2019-01-19T10:45:30.534Z,3.87
2019-01-19T10:48:00.121Z,6.53
2019-01-19T10:50:29.779Z,4.83
2019-01-19T10:52:59.592Z,4.78
2019-01-19T10:55:29.210Z,5.45
2019-01-19T10:57:58.725Z,5.17
2019-01-19T11:00:32.064Z,4.97
2019-01-19T11:03:01.867Z,4.22
2019-01-19T11:05:31.747Z,9.03
2019-01-19T11:08:03.868Z,5.47
2019-01-19T11:10:35.684Z,4.15
2019-01-19T11:13:05.630Z,5.65
2019-01-19T11:15:35.135Z,3.90
2019-01-19T11:18:06.250Z,4.05
2019-01-19T11:20:35.838Z,3.65
2019-01-19T11:23:05.640Z,4.22
2019-01-19T11:25:35.192Z,3.37
2019-01-19T11:28:04.998Z,5.67
2019-01-19T11:30:35.126Z,3.65
2019-01-19T11:33:04.782Z,3.62
2019-01-19T11:35:34.439Z,3.27
2019-01-19T11:38:04.053Z,3.98
2019-01-19T11:40:38.687Z,3.77
2019-01-19T11:43:09.200Z,3.25
2019-01-19T11:45:38.780Z,3.25
2019-01-19T11:48:08.446Z,2.20
2019-01-19T11:50:38.767Z,3.77
2019-01-19T11:53:08.265Z,6.05
2019-01-19T11:55:37.912Z,4.22
2019-01-19T11:58:07.543Z,3.05
2019-01-19T12:00:40.311Z,2.25
2019-01-19T12:03:09.990Z,2.92
2019-01-19T12:05:39.930Z,5.65
2019-01-19T12:08:10.401Z,3.15
2019-01-19T12:10:39.959Z,1.85
2019-01-19T12:13:09.607Z,3.12
2019-01-19T12:15:39.175Z,5.33
2019-01-19T12:18:08.952Z,2.35
2019-01-19T12:20:42.105Z,2.67
2019-01-19T12:23:11.823Z,6.87
2019-01-19T12:25:41.758Z,2.77
2019-01-19T12:28:11.297Z,5.50
2019-01-19T12:30:40.935Z,1.60
2019-01-19T12:33:10.600Z,2.40
2019-01-19T12:35:40.130Z,2.95
2019-01-19T12:38:09.785Z,3.08
2019-01-19T12:40:39.421Z,3.95
2019-01-19T12:43:15.907Z,3.55
2019-01-19T12:45:51.513Z,1.72
2019-01-19T12:48:21.241Z,4.58
2019-01-19T12:50:50.976Z,3.37
2019-01-19T12:53:20.468Z,3.30
2019-01-19T12:55:50.032Z,3.75
2019-01-19T12:58:19.868Z,3.55
2019-01-19T13:00:49.546Z,5.08
2019-01-19T13:03:19.170Z,3.22
2019-01-19T13:05:53.387Z,3.50
2019-01-19T13:08:34.212Z,5.47
2019-01-19T13:11:29.510Z,3.40
2019-01-19T13:14:03.255Z,3.77
2019-01-19T13:17:15.363Z,2.27
2019-01-19T13:19:55.766Z,2.33
2019-01-19T13:22:42.374Z,2.62
2019-01-19T13:25:28.219Z,6.35
2019-01-19T13:28:26.659Z,1.85
2019-01-19T13:31:23.300Z,3.80
2019-01-19T13:34:21.170Z,4.55
2019-01-19T13:36:57.929Z,4.03
2019-01-19T13:39:49.670Z,2.55
2019-01-19T13:42:23.866Z,3.45
2019-01-19T13:45:21.975Z,4.47
2019-01-19T13:48:11.224Z,2.60
2019-01-19T13:51:05.210Z,4.35
2019-01-19T13:54:09.770Z,1.98
2019-01-19T13:57:03.452Z,2.65
2019-01-19T13:59:43.425Z,2.65
2019-01-19T14:02:29.491Z,2.98
2019-01-19T14:05:30.992Z,3.17
2019-01-19T14:08:22.769Z,4.37
2019-01-19T14:11:18.061Z,3.58
2019-01-19T14:13:55.868Z,4.85
2019-01-19T14:16:30.969Z,2.90
2019-01-19T14:19:13.956Z,3.17
2019-01-19T14:22:10.969Z,4.62
2019-01-19T14:24:56.739Z,3.27
2019-01-19T14:27:59.708Z,1.98
2019-01-19T14:30:36.522Z,2.10
2019-01-19T14:33:25.477Z,4.00
2019-01-19T14:36:17.453Z,2.55
2019-01-19T14:39:41.477Z,2.15
2019-01-19T14:42:27.605Z,2.02
2019-01-19T14:45:30.412Z,2.83
2019-01-19T14:48:21.074Z,3.05
2019-01-19T14:51:23.559Z,2.47
2019-01-19T14:54:29.436Z,2.77
2019-01-19T14:57:10.513Z,1.95
2019-01-19T15:00:16.137Z,2.95
2019-01-19T15:03:35.179Z,5.67
2019-01-19T15:06:21.173Z,3.15
2019-01-19T15:09:15.893Z,5.47
2019-01-19T15:12:19.682Z,4.37
2019-01-19T15:15:02.433Z,2.30
2019-01-19T15:18:04.044Z,2.55
2019-01-19T15:20:41.013Z,6.90
2019-01-19T15:23:36.319Z,3.72
2019-01-19T15:26:18.855Z,4.75
2019-01-19T15:29:20.279Z,4.00
2019-01-19T15:32:13.813Z,2.80
2019-01-19T15:35:18.006Z,1.98
2019-01-19T15:38:23.351Z,4.40
2019-01-19T15:41:29.145Z,2.60
2019-01-19T15:44:39.249Z,6.37
2019-01-19T15:47:22.291Z,5.70
2019-01-19T15:50:16.029Z,7.97
2019-01-19T15:52:50.310Z,6.20
2019-01-19T15:56:11.734Z,3.25
2019-01-19T15:58:54.390Z,5.78
2019-01-19T16:01:40.275Z,4.12
2019-01-19T16:04:35.407Z,3.45
2019-01-19T16:07:24.970Z,7.12
2019-01-19T16:10:24.628Z,5.28
2019-01-19T16:13:20.805Z,4.85
2019-01-19T16:16:10.384Z,8.18
2019-01-19T16:18:53.044Z,6.75
2019-01-19T16:21:35.949Z,10.55
2019-01-19T16:24:40.303Z,7.45
2019-01-19T16:27:29.891Z,5.35
2019-01-19T16:30:29.469Z,7.55
2019-01-19T16:33:24.177Z,4.40
2019-01-19T16:36:25.330Z,9.55
2019-01-19T16:39:28.946Z,2.58
2019-01-19T16:42:06.929Z,2.90
2019-01-19T16:44:41.174Z,7.67
2019-01-19T16:47:36.811Z,7.17
2019-01-19T16:50:36.607Z,5.65
2019-01-19T16:53:11.093Z,5.83
2019-01-19T16:55:45.254Z,4.30
2019-01-19T16:58:24.665Z,4.05
2019-01-19T17:01:33.911Z,5.28
2019-01-19T17:04:16.970Z,8.58
2019-01-19T17:06:56.988Z,8.73
2019-01-19T17:09:52.164Z,11.55
2019-01-19T17:12:38.240Z,7.80
2019-01-19T17:15:24.443Z,5.97
2019-01-19T17:18:07.218Z,5.53
2019-01-19T17:21:03.259Z,3.60
2019-01-19T17:23:46.324Z,8.38
2019-01-19T17:26:29.235Z,7.97
2019-01-19T17:29:27.388Z,7.45
2019-01-19T17:32:16.701Z,7.95
2019-01-19T17:35:20.843Z,3.85
2019-01-19T17:38:05.055Z,5.42
2019-01-19T17:40:41.959Z,10.98
2019-01-19T17:43:26.274Z,6.50
2019-01-19T17:46:18.342Z,8.48
2019-01-19T17:49:01.276Z,8.43
2019-01-19T17:52:10.040Z,7.42
2019-01-19T17:55:32.433Z,12.35
2019-01-19T17:58:27.040Z,7.72
2019-01-19T18:01:26.908Z,5.58
2019-01-19T18:04:18.956Z,9.78
2019-01-19T18:07:18.816Z,15.25
2019-01-19T18:10:07.946Z,10.93
2019-01-19T18:12:53.921Z,9.38
2019-01-19T18:15:51.112Z,9.70
2019-01-19T18:18:40.437Z,22.77
2019-01-19T18:21:29.096Z,11.38
2019-01-19T18:24:30.342Z,15.32
2019-01-19T18:27:25.858Z,8.88
2019-01-19T18:30:12.011Z,21.30
2019-01-19T18:33:03.819Z,10.68
2019-01-19T18:35:52.898Z,15.40
2019-01-19T18:38:41.588Z,17.77
2019-01-19T18:41:30.362Z,5.80
2019-01-19T18:44:37.822Z,14.38
2019-01-19T18:47:30.115Z,12.75
2019-01-19T18:50:32.244Z,10.82
2019-01-19T18:53:35.403Z,11.68
2019-01-19T18:56:38.745Z,8.68
2019-01-19T18:59:15.841Z,7.72
2019-01-19T19:02:35.231Z,11.65
2019-01-19T19:05:20.505Z,12.37
2019-01-19T19:08:15.479Z,9.78
2019-01-19T19:10:55.644Z,6.85
2019-01-19T19:13:35.866Z,16.75
2019-01-19T19:16:33.965Z,6.62
2019-01-19T19:19:42.235Z,8.35
2019-01-19T19:22:24.968Z,8.65
2019-01-19T19:25:28.806Z,9.25
2019-01-19T19:28:45.912Z,15.98
2019-01-19T19:31:46.654Z,10.10
2019-01-19T19:34:41.180Z,10.65
2019-01-19T19:37:34.684Z,4.08
2019-01-19T19:40:20.876Z,8.50
2019-01-19T19:42:55.087Z,7.28
2019-01-19T19:45:47.099Z,8.70
2019-01-19T19:48:23.946Z,5.80
2019-01-19T19:51:12.474Z,8.73
2019-01-19T19:53:42.513Z,9.45
2019-01-19T19:56:10.458Z,7.00
2019-01-19T19:58:40.961Z,9.23
2019-01-19T20:01:10.592Z,9.30
2019-01-19T20:03:40.211Z,6.40
2019-01-19T20:06:09.786Z,4.47
2019-01-19T20:08:39.384Z,8.43
2019-01-19T20:11:09.041Z,6.30
2019-01-19T20:13:38.702Z,5.95
2019-01-19T20:16:08.293Z,7.90
2019-01-19T20:18:37.979Z,6.75
2019-01-19T20:21:07.910Z,10.23
2019-01-19T20:23:37.646Z,9.78
2019-01-19T20:26:07.380Z,8.65
2019-01-19T20:28:36.994Z,6.80
2019-01-19T20:31:06.721Z,5.20
2019-01-19T20:33:36.321Z,5.72
2019-01-19T20:36:06.092Z,6.72
2019-01-19T20:38:35.725Z,6.37
2019-01-19T20:41:05.540Z,4.72
2019-01-19T20:43:35.239Z,7.50
2019-01-19T20:46:04.885Z,5.00
2019-01-19T20:48:34.669Z,4.28
2019-01-19T20:51:04.659Z,8.25
2019-01-19T20:53:34.291Z,6.80
2019-01-19T20:56:04.084Z,6.03
2019-01-19T20:58:33.698Z,8.08
2019-01-19T21:01:03.185Z,4.75
2019-01-19T21:03:32.786Z,5.30
2019-01-19T21:06:02.391Z,6.90
2019-01-19T21:08:31.957Z,4.85
2019-01-19T21:11:01.551Z,8.55
2019-01-19T21:13:31.564Z,4.17
2019-01-19T21:16:02.695Z,5.92
2019-01-19T21:18:32.282Z,6.65
2019-01-19T21:21:02.251Z,4.55
2019-01-19T21:23:31.873Z,6.65
2019-01-19T21:26:04.202Z,6.15
2019-01-19T21:28:34.006Z,6.47
2019-01-19T21:31:03.614Z,4.90
2019-01-19T21:33:33.203Z,7.17
2019-01-19T21:36:02.840Z,5.53
2019-01-19T21:38:34.311Z,7.90
2019-01-19T21:41:06.180Z,8.15
2019-01-19T21:43:35.650Z,8.93
2019-01-19T21:46:05.287Z,7.87
2019-01-19T21:48:35.039Z,8.85
2019-01-19T21:51:04.587Z,6.17
2019-01-19T21:53:34.501Z,14.28
2019-01-19T21:56:05.623Z,4.35
2019-01-19T21:58:37.226Z,6.40
2019-01-19T22:01:06.870Z,7.70
2019-01-19T22:03:39.347Z,10.50
2019-01-19T22:06:09.539Z,5.60
2019-01-19T22:08:39.096Z,8.40
2019-01-19T22:11:08.658Z,9.58
2019-01-19T22:13:38.166Z,7.12
2019-01-19T22:16:07.756Z,9.25
2019-01-19T22:18:37.350Z,11.38
2019-01-19T22:21:06.992Z,7.42
2019-01-19T22:23:36.541Z,12.37
2019-01-19T22:26:08.038Z,10.35
2019-01-19T22:28:37.733Z,8.05
2019-01-19T22:31:07.244Z,9.68
2019-01-19T22:33:36.860Z,7.80
2019-01-19T22:36:07.466Z,10.75
2019-01-19T22:38:37.920Z,6.12
2019-01-19T22:41:09.075Z,6.80
2019-01-19T22:43:38.644Z,9.23
2019-01-19T22:46:08.311Z,8.83
2019-01-19T22:48:37.899Z,5.90
2019-01-19T22:51:11.427Z,6.53
2019-01-19T22:53:38.689Z,7.85
2019-01-19T22:56:08.229Z,3.92
2019-01-19T22:58:37.822Z,6.10
2019-01-19T23:01:21.199Z,4.85
2019-01-19T23:03:50.785Z,5.15
2019-01-19T23:06:20.356Z,7.33
2019-01-19T23:08:49.962Z,4.53
2019-01-19T23:11:19.540Z,4.65
2019-01-19T23:13:49.098Z,8.20
2019-01-19T23:16:18.769Z,9.43
2019-01-19T23:18:48.340Z,6.62
2019-01-19T23:21:17.873Z,5.83
2019-01-19T23:23:47.368Z,9.53
2019-01-19T23:26:17.525Z,10.15
2019-01-19T23:28:47.017Z,4.33
2019-01-19T23:31:16.511Z,4.97
2019-01-19T23:33:46.111Z,5.33
2019-01-19T23:36:15.596Z,5.95
2019-01-19T23:38:45.253Z,5.67
2019-01-19T23:41:16.893Z,11.00
2019-01-19T23:43:46.492Z,4.95
2019-01-19T23:46:16.067Z,4.92
2019-01-19T23:48:45.723Z,4.83
2019-01-19T23:51:15.251Z,5.80
2019-01-19T23:53:44.831Z,7.75
2019-01-19T23:56:14.476Z,12.60
2019-01-19T23:58:44.059Z,10.28
